Time;durP1;ratioP1;P1;durP2;ratioP2;P2;SDS_P1;SDS_P2;PMS_P1;PMS_P2;Temp;Humidity;BMP_temperature;BMP_pressure;BME280_temperature;BME280_humidity;BME280_pressure;Samples;Min_cycle;Max_cycle;Signal;HPM_P1;HPM_P2
2023/06/12 00:01:44;;;;;;;;;;;;;;;19.59;46.82;99702.50;5301262;27;32318;-86
2023/06/12 00:04:13;;;;;;;;;;;;;;;19.51;46.60;99709.44;5319008;27;33969;-86
2023/06/12 00:06:40;;;;;;;;;;;;;;;19.69;46.10;99714.16;5300579;27;34774;-86
2023/06/12 00:09:12;;;;;;;;;;;;;;;19.94;46.11;99717.50;5301433;27;33606;-86
2023/06/12 00:11:40;;;;;;;;;;;;;;;19.94;46.16;99717.50;5300738;27;33304;-87
2023/06/12 00:14:08;;;;;;;;;;;;;;;19.93;45.81;99715.78;5301003;27;35018;-86
2023/06/12 00:16:37;;;;;;;;;;;;;;;20.02;45.73;99704.28;5282742;27;33504;-86
2023/06/12 00:19:05;;;;;;;;;;;;;;;19.97;46.14;99701.16;5300762;27;32848;-84
2023/06/12 00:21:32;;;;;;;;;;;;;;;20.04;45.78;99706.88;5318170;27;34174;-84
2023/06/12 00:24:00;;;;;;;;;;;;;;;19.30;47.59;99698.69;5300271;27;33928;-84
2023/06/12 00:26:28;;;;;;;;;;;;;;;19.54;46.49;99703.84;5282085;27;33072;-84
2023/06/12 00:28:55;;;;;;;;;;;;;;;19.77;46.72;99701.97;5282166;27;32578;-84
2023/06/12 00:31:23;;;;;;;;;;;;;;;19.79;46.16;99706.22;5300515;27;34243;-86
2023/06/12 00:33:50;;;;;;;;;;;;;;;19.62;46.94;99707.62;5282815;27;34280;-87
2023/06/12 00:36:18;;;;;;;;;;;;;;;19.56;46.41;99709.91;5299950;27;33055;-86
2023/06/12 00:38:45;;;;;;;;;;;;;;;19.59;45.91;99704.31;5299468;27;33645;-86
2023/06/12 00:41:13;;;;;;;;;;;;;;;19.26;47.17;99708.78;5301164;27;33827;-86
2023/06/12 00:43:40;;;;;;;;;;;;;;;19.52;46.46;99706.66;5301427;27;33999;-86
2023/06/12 00:46:08;;;;;;;;;;;;;;;19.40;46.80;99705.81;5283698;27;33060;-83
2023/06/12 00:48:35;;;;;;;;;;;;;;;19.51;47.10;99702.25;5301455;27;34300;-84
2023/06/12 00:51:03;;;;;;;;;;;;;;;19.35;47.52;99701.81;5301263;27;33378;-84
2023/06/12 00:53:32;;;;;;;;;;;;;;;19.61;46.62;99705.94;5283423;27;33048;-84
2023/06/12 00:55:59;;;;;;;;;;;;;;;19.66;46.46;99710.91;5301881;27;34168;-84
2023/06/12 00:58:28;;;;;;;;;;;;;;;19.84;45.59;99708.50;5319853;27;35089;-84
2023/06/12 01:00:56;;;;;;;;;;;;;;;19.52;47.23;99700.47;5283431;27;32469;-85
2023/06/12 01:03:24;;;;;;;;;;;;;;;19.66;46.33;99703.72;5282795;27;33406;-85
2023/06/12 01:05:53;;;;;;;;;;;;;;;20.06;45.29;99707.56;5301842;27;33951;-85
2023/06/12 01:08:27;;;;;;;;;;;;;;;20.03;45.51;99700.62;5283721;27;34197;-85
2023/06/12 01:11:05;;;;;;;;;;;;;;;19.77;46.88;99700.16;5301348;27;32429;-85
2023/06/12 01:13:33;;;;;;;;;;;;;;;19.98;45.71;99697.47;5301660;27;33986;-84
2023/06/12 01:16:01;;;;;;;;;;;;;;;19.94;46.09;99696.06;5283393;27;34058;-84
2023/06/12 01:18:29;;;;;;;;;;;;;;;19.91;45.58;99701.69;5301282;27;34069;-83
2023/06/12 01:20:58;;;;;;;;;;;;;;;19.89;45.82;99693.78;5283479;27;33388;-84
2023/06/12 01:23:36;;;;;;;;;;;;;;;19.77;45.32;99691.25;5283598;27;32769;-83
2023/06/12 01:26:08;;;;;;;;;;;;;;;19.52;46.78;99690.59;5301699;27;33349;-84
2023/06/12 01:28:54;;;;;;;;;;;;;;;19.60;46.34;99698.84;5319803;27;34146;-83
2023/06/12 01:31:26;;;;;;;;;;;;;;;19.24;48.28;99699.19;5301727;27;33464;-84
2023/06/12 01:33:55;;;;;;;;;;;;;;;19.36;47.56;99690.13;5301180;27;33231;-83
2023/06/12 01:36:23;;;;;;;;;;;;;;;19.40;46.91;99697.78;5301150;27;33816;-84
2023/06/12 01:38:54;;;;;;;;;;;;;;;19.70;46.14;99693.59;5265525;27;34248;-84
2023/06/12 01:41:21;;;;;;;;;;;;;;;19.57;46.87;99700.94;5301527;27;33801;-83
2023/06/12 01:43:49;;;;;;;;;;;;;;;19.33;47.88;99695.75;5319433;27;34408;-84
2023/06/12 01:46:17;;;;;;;;;;;;;;;19.32;47.58;99691.34;5319472;27;33949;-84
2023/06/12 01:48:46;;;;;;;;;;;;;;;19.08;48.56;99697.72;5319166;27;34306;-84
2023/06/12 01:51:14;;;;;;;;;;;;;;;19.14;48.75;99710.63;5319489;27;33647;-84
2023/06/12 01:53:41;;;;;;;;;;;;;;;19.10;49.48;99711.00;5300868;27;34451;-84
2023/06/12 01:56:08;;;;;;;;;;;;;;;19.46;47.35;99707.16;5283080;27;33355;-87
2023/06/12 01:58:38;;;;;;;;;;;;;;;19.34;48.40;99719.72;5283687;27;33252;-86
2023/06/12 02:01:08;;;;;;;;;;;;;;;19.29;48.70;99705.88;5283376;27;32048;-87
2023/06/12 02:03:37;;;;;;;;;;;;;;;19.24;49.29;99707.22;5302490;27;34089;-86
2023/06/12 02:06:04;;;;;;;;;;;;;;;19.25;49.06;99708.91;5301468;27;34315;-86
2023/06/12 02:08:32;;;;;;;;;;;;;;;19.27;49.56;99709.63;5301545;27;33426;-86
2023/06/12 02:10:59;;;;;;;;;;;;;;;19.13;48.50;99710.75;5319248;27;33308;-85
2023/06/12 02:13:30;;;;;;;;;;;;;;;19.27;48.75;99713.16;5301343;27;33989;-85
2023/06/12 02:15:57;;;;;;;;;;;;;;;19.13;50.18;99711.63;5301314;27;34479;-84
2023/06/12 02:18:28;;;;;;;;;;;;;;;19.12;50.07;99706.38;5284319;27;32982;-84
2023/06/12 02:20:55;;;;;;;;;;;;;;;18.92;51.05;99716.00;5301496;27;33015;-85
2023/06/12 02:23:24;;;;;;;;;;;;;;;18.78;51.50;99710.87;5283366;27;33245;-85
2023/06/12 02:25:52;;;;;;;;;;;;;;;18.58;52.37;99707.09;5301062;27;33389;-85
2023/06/12 02:28:19;;;;;;;;;;;;;;;18.66;51.96;99715.38;5282495;27;32963;-84
2023/06/12 02:30:47;;;;;;;;;;;;;;;18.64;51.69;99718.13;5283235;27;32384;-85
2023/06/12 02:33:15;;;;;;;;;;;;;;;18.48;52.28;99719.47;5282917;27;33235;-85
2023/06/12 02:35:42;;;;;;;;;;;;;;;18.36;52.37;99715.91;5301157;27;34137;-85
2023/06/12 02:38:10;;;;;;;;;;;;;;;18.24;52.85;99716.88;5317805;27;34320;-85
2023/06/12 02:40:38;;;;;;;;;;;;;;;17.98;53.67;99711.69;5283266;27;32986;-85
2023/06/12 02:43:06;;;;;;;;;;;;;;;18.11;53.16;99717.78;5319388;27;34231;-85
2023/06/12 02:45:34;;;;;;;;;;;;;;;18.10;53.56;99720.59;5282756;27;33117;-85
2023/06/12 02:48:02;;;;;;;;;;;;;;;18.19;53.04;99719.91;5282415;27;33904;-85
2023/06/12 02:50:31;;;;;;;;;;;;;;;18.10;53.05;99717.94;5301251;27;32547;-85
2023/06/12 02:52:59;;;;;;;;;;;;;;;18.09;53.37;99718.91;5282971;27;32907;-85
2023/06/12 02:55:26;;;;;;;;;;;;;;;18.11;53.27;99723.12;5319662;27;33396;-85
2023/06/12 02:57:55;;;;;;;;;;;;;;;17.93;54.05;99727.19;5301216;27;33200;-85
2023/06/12 03:00:23;;;;;;;;;;;;;;;18.08;53.43;99731.38;5319116;27;32915;-85
2023/06/12 03:02:55;;;;;;;;;;;;;;;18.03;53.39;99725.53;5319129;27;34554;-85
2023/06/12 03:05:25;;;;;;;;;;;;;;;17.83;54.08;99720.84;5284204;27;33058;-85
2023/06/12 03:07:54;;;;;;;;;;;;;;;17.91;54.20;99727.31;5301525;27;33989;-85
2023/06/12 03:10:22;;;;;;;;;;;;;;;17.72;54.14;99723.44;5283494;27;32604;-85
2023/06/12 03:12:50;;;;;;;;;;;;;;;17.83;54.12;99726.19;5283125;27;32648;-85
2023/06/12 03:15:18;;;;;;;;;;;;;;;17.85;54.02;99730.47;5319403;27;34625;-85
2023/06/12 03:17:46;;;;;;;;;;;;;;;17.89;54.17;99723.91;5319575;27;32925;-85
2023/06/12 03:20:14;;;;;;;;;;;;;;;17.77;54.21;99724.00;5301229;27;33761;-85
2023/06/12 03:22:42;;;;;;;;;;;;;;;17.43;55.81;99720.25;5282903;27;33945;-85
2023/06/12 03:25:10;;;;;;;;;;;;;;;17.69;54.54;99727.19;5301134;27;35002;-85
2023/06/12 03:27:38;;;;;;;;;;;;;;;18.00;51.00;99720.44;5300847;27;34431;-84
2023/06/12 03:30:06;;;;;;;;;;;;;;;18.03;52.23;99727.34;5282575;27;32320;-84
2023/06/12 03:32:33;;;;;;;;;;;;;;;17.99;51.50;99724.06;5318827;27;33828;-83
2023/06/12 03:35:01;;;;;;;;;;;;;;;17.81;51.47;99722.81;5282865;27;33122;-83
2023/06/12 03:37:30;;;;;;;;;;;;;;;18.24;48.69;99724.88;5300913;27;33926;-83
2023/06/12 03:39:58;;;;;;;;;;;;;;;18.65;49.08;99719.00;5319203;27;33442;-84
2023/06/12 03:42:26;;;;;;;;;;;;;;;18.69;48.13;99717.81;5300647;27;33312;-84
2023/06/12 03:44:53;;;;;;;;;;;;;;;18.63;49.44;99721.78;5318101;27;33900;-85
2023/06/12 03:47:22;;;;;;;;;;;;;;;18.91;47.05;99717.81;5283304;27;33493;-84
2023/06/12 03:49:50;;;;;;;;;;;;;;;18.66;48.11;99723.38;5282625;27;32896;-84
2023/06/12 03:52:18;;;;;;;;;;;;;;;19.11;47.33;99718.91;5318795;27;33474;-84
2023/06/12 03:54:45;;;;;;;;;;;;;;;19.18;46.31;99722.81;5283169;27;33099;-84
2023/06/12 03:57:13;;;;;;;;;;;;;;;18.57;49.12;99716.94;5300806;27;33395;-84
2023/06/12 03:59:40;;;;;;;;;;;;;;;19.38;45.13;99709.63;5299877;27;32649;-84
2023/06/12 04:02:08;;;;;;;;;;;;;;;19.55;45.07;99711.75;5281600;27;33365;-83
2023/06/12 04:04:37;;;;;;;;;;;;;;;19.49;45.22;99711.41;5301050;27;33618;-83
2023/06/12 04:07:04;;;;;;;;;;;;;;;19.65;45.64;99718.09;5318783;27;32905;-83
2023/06/12 04:09:32;;;;;;;;;;;;;;;19.63;45.93;99717.38;5300665;27;33718;-82
2023/06/12 04:12:00;;;;;;;;;;;;;;;19.32;45.77;99710.97;5282547;27;32952;-83
2023/06/12 04:14:27;;;;;;;;;;;;;;;19.82;44.85;99713.16;5318525;27;33913;-83
2023/06/12 04:16:55;;;;;;;;;;;;;;;19.88;43.92;99707.28;5301601;27;34501;-83
2023/06/12 04:19:23;;;;;;;;;;;;;;;20.10;43.75;99706.34;5283360;27;33329;-83
2023/06/12 04:21:51;;;;;;;;;;;;;;;20.29;42.94;99710.97;5320270;27;33687;-83
2023/06/12 04:24:19;;;;;;;;;;;;;;;19.74;43.16;99712.94;5301237;27;34186;-84
2023/06/12 04:26:48;;;;;;;;;;;;;;;19.81;43.12;99711.47;5319446;27;34583;-87
2023/06/12 04:29:17;;;;;;;;;;;;;;;19.80;43.08;99715.97;5282911;27;32774;-84
2023/06/12 04:31:44;;;;;;;;;;;;;;;19.66;43.46;99717.13;5282907;27;33182;-84
2023/06/12 04:34:15;;;;;;;;;;;;;;;19.99;43.46;99709.06;5301781;27;35193;-84
2023/06/12 04:36:45;;;;;;;;;;;;;;;19.98;44.07;99710.87;5301635;27;34552;-84
2023/06/12 04:39:13;;;;;;;;;;;;;;;19.97;43.57;99714.56;5301762;27;33071;-84
2023/06/12 04:41:42;;;;;;;;;;;;;;;20.02;43.75;99722.19;5264828;27;33682;-84
2023/06/12 04:44:11;;;;;;;;;;;;;;;20.14;42.40;99722.03;5265316;27;33051;-84
2023/06/12 04:46:39;;;;;;;;;;;;;;;20.09;42.38;99723.41;5282977;27;33201;-85
2023/06/12 04:49:08;;;;;;;;;;;;;;;19.86;43.26;99728.84;5283301;27;32442;-84
2023/06/12 04:51:38;;;;;;;;;;;;;;;19.80;43.69;99725.84;5302015;27;33575;-84
2023/06/12 04:54:09;;;;;;;;;;;;;;;20.03;42.37;99716.72;5301848;27;34056;-85
2023/06/12 04:56:40;;;;;;;;;;;;;;;20.35;41.49;99729.22;5301662;27;33502;-83
2023/06/12 04:59:08;;;;;;;;;;;;;;;19.88;42.61;99721.53;5284466;27;32957;-85
2023/06/12 05:01:38;;;;;;;;;;;;;;;19.80;42.52;99725.84;5282996;27;33989;-84
2023/06/12 05:04:05;;;;;;;;;;;;;;;19.86;42.78;99734.22;5265180;27;33506;-84
2023/06/12 05:06:37;;;;;;;;;;;;;;;20.12;42.17;99728.47;5282421;27;33275;-84
2023/06/12 05:09:07;;;;;;;;;;;;;;;20.15;42.92;99731.75;5265496;27;33132;-84
2023/06/12 05:11:35;;;;;;;;;;;;;;;20.39;42.21;99728.81;5301349;27;34276;-85
2023/06/12 05:14:02;;;;;;;;;;;;;;;20.03;42.04;99732.78;5301379;27;34620;-85
2023/06/12 05:16:32;;;;;;;;;;;;;;;20.10;42.36;99731.31;5283019;27;32831;-86
2023/06/12 05:19:00;;;;;;;;;;;;;;;20.37;41.76;99736.16;5261054;27;33642;-86
2023/06/12 05:21:28;;;;;;;;;;;;;;;20.09;41.78;99734.13;5261338;27;33123;-85
2023/06/12 05:23:56;;;;;;;;;;;;;;;20.60;41.32;99736.03;5262393;27;33934;-86
2023/06/12 05:26:24;;;;;;;;;;;;;;;20.42;42.64;99733.94;5279528;27;33267;-87
2023/06/12 05:28:52;;;;;;;;;;;;;;;20.37;41.29;99733.47;5289973;27;31830;-87
2023/06/12 05:31:19;;;;;;;;;;;;;;;20.89;40.37;99730.84;5262766;27;33266;-86
2023/06/12 05:33:47;;;;;;;;;;;;;;;20.95;40.99;99730.28;5315996;27;33901;-84
2023/06/12 05:36:14;;;;;;;;;;;;;;;21.12;40.77;99720.72;5297544;27;34707;-83
2023/06/12 05:38:46;;;;;;;;;;;;;;;21.13;39.91;99722.44;5316970;27;33395;-83
2023/06/12 05:41:17;;;;;;;;;;;;;;;20.55;41.13;99728.38;5299267;27;34658;-83
2023/06/12 05:43:45;;;;;;;;;;;;;;;21.00;40.40;99722.69;5280823;27;33076;-83
2023/06/12 05:46:13;;;;;;;;;;;;;;;21.12;40.56;99726.94;5318186;27;34133;-84
2023/06/12 05:48:41;;;;;;;;;;;;;;;20.90;41.24;99729.84;5319995;27;34569;-84
2023/06/12 05:51:08;;;;;;;;;;;;;;;21.10;40.02;99738.81;5301287;27;34890;-84
2023/06/12 05:53:38;;;;;;;;;;;;;;;20.93;40.01;99733.09;5301689;27;33821;-83
2023/06/12 05:56:05;;;;;;;;;;;;;;;21.32;39.67;99737.81;5320184;27;35172;-84
2023/06/12 05:58:37;;;;;;;;;;;;;;;21.28;40.92;99745.25;5284731;27;33266;-84
2023/06/12 06:01:04;;;;;;;;;;;;;;;21.02;39.48;99746.69;5283611;27;33384;-83
2023/06/12 06:03:34;;;;;;;;;;;;;;;20.80;40.40;99750.44;5302077;27;33894;-83
2023/06/12 06:06:02;;;;;;;;;;;;;;;20.67;40.68;99756.00;5301713;27;33022;-83
2023/06/12 06:08:30;;;;;;;;;;;;;;;20.97;39.58;99745.25;5319568;27;33776;-83
2023/06/12 06:10:58;;;;;;;;;;;;;;;20.51;41.52;99747.56;5301512;27;33109;-84
2023/06/12 06:13:25;;;;;;;;;;;;;;;21.18;38.93;99745.22;5302428;27;33878;-84
2023/06/12 06:15:53;;;;;;;;;;;;;;;20.71;40.06;99760.97;5283298;27;34283;-83
2023/06/12 06:18:21;;;;;;;;;;;;;;;20.85;39.91;99750.88;5301568;27;33788;-83
2023/06/12 06:20:48;;;;;;;;;;;;;;;20.73;39.53;99759.97;5283508;27;33930;-84
2023/06/12 06:23:16;;;;;;;;;;;;;;;20.94;39.59;99755.44;5320273;27;34165;-83
2023/06/12 06:25:44;;;;;;;;;;;;;;;20.52;39.52;99758.16;5293191;27;34218;-83
2023/06/12 06:28:12;;;;;;;;;;;;;;;20.85;40.30;99750.88;5320194;27;32468;-83
2023/06/12 06:30:40;;;;;;;;;;;;;;;21.17;40.03;99756.94;5301742;27;33942;-83
2023/06/12 06:33:07;;;;;;;;;;;;;;;20.97;38.35;99750.63;5317474;27;34773;-83
2023/06/12 06:35:35;;;;;;;;;;;;;;;20.89;39.42;99755.00;5298862;27;34159;-83
2023/06/12 06:38:03;;;;;;;;;;;;;;;20.84;38.30;99750.03;5280805;27;32112;-83
2023/06/12 06:40:32;;;;;;;;;;;;;;;20.93;39.36;99753.72;5299185;27;33849;-83
2023/06/12 06:42:59;;;;;;;;;;;;;;;21.28;38.45;99758.69;5298513;27;33218;-83
2023/06/12 06:45:29;;;;;;;;;;;;;;;21.37;36.92;99752.53;5298428;27;34097;-83
2023/06/12 06:47:56;;;;;;;;;;;;;;;21.29;39.59;99768.44;5316371;27;32787;-84
2023/06/12 06:50:24;;;;;;;;;;;;;;;21.39;39.03;99761.28;5261571;27;34347;-84
2023/06/12 06:52:52;;;;;;;;;;;;;;;21.12;37.86;99753.78;5279741;27;33386;-84
2023/06/12 06:55:20;;;;;;;;;;;;;;;21.55;38.21;99765.28;5280531;27;33288;-84
2023/06/12 06:57:50;;;;;;;;;;;;;;;21.60;36.27;99761.22;5280589;27;32494;-84
2023/06/12 07:00:19;;;;;;;;;;;;;;;21.48;36.76;99748.87;5280420;27;34206;-84
2023/06/12 07:02:47;;;;;;;;;;;;;;;21.70;37.96;99756.69;5280479;27;34263;-84
2023/06/12 07:05:15;;;;;;;;;;;;;;;21.41;37.51;99758.44;5280652;27;33432;-84
2023/06/12 07:07:43;;;;;;;;;;;;;;;21.67;36.55;99764.19;5316416;27;33130;-84
2023/06/12 07:10:28;;;;;;;;;;;;;;;21.78;35.28;99760.50;5284981;27;33185;-83
2023/06/12 07:12:57;;;;;;;;;;;;;;;21.72;37.31;99757.37;5299137;27;34370;-83
2023/06/12 07:15:25;;;;;;;;;;;;;;;22.16;37.35;99760.56;5281056;27;33413;-84
2023/06/12 07:17:54;;;;;;;;;;;;;;;22.25;35.94;99764.25;5317858;27;33068;-83
2023/06/12 07:20:22;;;;;;;;;;;;;;;22.58;34.45;99757.53;5280640;27;33062;-84
2023/06/12 07:22:50;;;;;;;;;;;;;;;22.05;34.68;99762.53;5299091;27;33822;-84
2023/06/12 07:25:17;;;;;;;;;;;;;;;21.92;36.05;99758.25;5281226;27;32978;-84
2023/06/12 07:27:45;;;;;;;;;;;;;;;22.41;34.25;99756.44;5299160;27;32614;-84
2023/06/12 07:30:14;;;;;;;;;;;;;;;22.42;34.38;99760.00;5315191;27;33389;-83
2023/06/12 07:32:41;;;;;;;;;;;;;;;22.18;35.66;99761.28;5297156;27;34516;-83
2023/06/12 07:35:09;;;;;;;;;;;;;;;22.38;35.42;99750.50;5297270;27;34095;-83
2023/06/12 07:37:38;;;;;;;;;;;;;;;22.63;33.56;99744.50;5297393;27;34284;-84
2023/06/12 07:40:08;;;;;;;;;;;;;;;22.48;33.65;99757.56;5264091;27;32702;-84
2023/06/12 07:42:35;;;;;;;;;;;;;;;22.34;33.53;99765.22;5300962;27;34712;-83
2023/06/12 07:45:03;;;;;;;;;;;;;;;22.32;33.30;99756.47;5283520;27;33252;-84
2023/06/12 07:47:33;;;;;;;;;;;;;;;22.44;32.83;99756.16;5284148;27;32430;-83
2023/06/12 07:50:01;;;;;;;;;;;;;;;22.58;34.15;99752.16;5300850;27;34566;-83
2023/06/12 07:52:30;;;;;;;;;;;;;;;22.49;33.52;99764.63;5302388;27;33984;-84
2023/06/12 07:54:58;;;;;;;;;;;;;;;22.53;34.25;99765.19;5302361;27;34330;-84
2023/06/12 07:57:25;;;;;;;;;;;;;;;22.58;32.11;99752.16;5284356;27;32502;-83
2023/06/12 07:59:53;;;;;;;;;;;;;;;22.32;32.63;99753.78;5284076;27;33071;-84
2023/06/12 08:02:22;;;;;;;;;;;;;;;22.58;32.14;99741.37;5320282;27;33749;-84
2023/06/12 08:04:49;;;;;;;;;;;;;;;22.72;34.73;99738.25;5302691;27;33555;-84
2023/06/12 08:07:17;;;;;;;;;;;;;;;23.09;32.86;99737.44;5302113;27;33408;-84
2023/06/12 08:09:45;;;;;;;;;;;;;;;23.21;30.66;99730.00;5283898;27;32964;-84
2023/06/12 08:12:13;;;;;;;;;;;;;;;23.21;31.86;99741.59;5320555;27;33891;-84
2023/06/12 08:14:41;;;;;;;;;;;;;;;23.44;31.50;99731.28;5302332;27;34439;-84
2023/06/12 08:17:11;;;;;;;;;;;;;;;23.65;29.81;99736.44;5283754;27;33573;-83
2023/06/12 08:19:41;;;;;;;;;;;;;;;23.65;30.46;99738.28;5302366;27;32900;-84
2023/06/12 08:22:08;;;;;;;;;;;;;;;23.57;31.08;99732.78;5301912;27;34333;-83
2023/06/12 08:24:36;;;;;;;;;;;;;;;23.36;31.17;99731.22;5320136;27;34459;-83
2023/06/12 08:27:05;;;;;;;;;;;;;;;23.51;31.06;99731.53;5302593;27;33158;-84
2023/06/12 08:29:34;;;;;;;;;;;;;;;23.30;29.70;99728.25;5301895;27;34811;-84
2023/06/12 08:32:02;;;;;;;;;;;;;;;23.13;30.98;99735.31;5283748;27;33550;-84
2023/06/12 08:34:30;;;;;;;;;;;;;;;23.34;31.40;99733.19;5301991;27;33843;-84
2023/06/12 08:36:58;;;;;;;;;;;;;;;23.45;30.93;99730.31;5302060;27;33681;-84
2023/06/12 08:39:26;;;;;;;;;;;;;;;23.53;30.78;99729.53;5301670;27;34024;-84
2023/06/12 08:42:11;;;;;;;;;;;;;;;23.77;33.69;99737.91;5284196;27;33353;-84
2023/06/12 08:44:38;;;;;;;;;;;;;;;23.90;30.37;99734.00;5301787;27;33353;-84
2023/06/12 08:47:06;;;;;;;;;;;;;;;23.97;29.66;99732.34;5301898;27;32564;-84
2023/06/12 08:49:33;;;;;;;;;;;;;;;23.77;29.92;99732.50;5319763;27;34688;-84
2023/06/12 08:52:01;;;;;;;;;;;;;;;24.17;31.82;99742.00;5302261;27;34750;-84
2023/06/12 08:54:32;;;;;;;;;;;;;;;23.99;30.25;99744.69;5302359;27;34348;-84
2023/06/12 08:57:00;;;;;;;;;;;;;;;23.71;30.25;99737.69;5301891;27;32831;-84
2023/06/12 08:59:28;;;;;;;;;;;;;;;24.15;30.10;99737.75;5320358;27;34455;-84
2023/06/12 09:01:56;;;;;;;;;;;;;;;24.17;28.60;99728.50;5301460;27;33765;-83
2023/06/12 09:04:32;;;;;;;;;;;;;;;24.10;28.54;99735.50;5302734;27;33606;-84
2023/06/12 09:07:01;;;;;;;;;;;;;;;23.84;31.05;99738.16;5320226;27;33162;-84
2023/06/12 09:09:35;;;;;;;;;;;;;;;24.17;30.03;99728.50;5284374;27;33086;-84
2023/06/12 09:12:03;;;;;;;;;;;;;;;24.15;28.93;99733.19;5319976;27;34529;-83
2023/06/12 09:14:32;;;;;;;;;;;;;;;23.79;30.30;99739.63;5301593;27;34695;-83
2023/06/12 09:17:04;;;;;;;;;;;;;;;23.92;32.82;99731.97;5301611;27;33396;-84
2023/06/12 09:19:36;;;;;;;;;;;;;;;24.03;32.22;99731.75;5301870;27;35061;-84
2023/06/12 09:22:03;;;;;;;;;;;;;;;24.45;29.66;99729.28;5320391;27;33345;-84
2023/06/12 09:24:32;;;;;;;;;;;;;;;24.17;29.40;99723.12;5284294;27;32900;-84
2023/06/12 09:27:00;;;;;;;;;;;;;;;24.02;29.52;99730.91;5320683;27;33479;-84
2023/06/12 09:29:28;;;;;;;;;;;;;;;24.19;29.46;99726.50;5301730;27;32764;-83
2023/06/12 09:31:59;;;;;;;;;;;;;;;24.27;30.35;99737.34;5283559;27;33161;-84
2023/06/12 09:34:27;;;;;;;;;;;;;;;24.41;29.63;99729.75;5301420;27;33724;-84
2023/06/12 09:36:55;;;;;;;;;;;;;;;24.57;28.93;99729.84;5283932;27;33041;-84
2023/06/12 09:39:23;;;;;;;;;;;;;;;24.23;29.12;99730.56;5283206;27;33410;-84
2023/06/12 09:41:51;;;;;;;;;;;;;;;24.42;29.62;99726.03;5320333;27;34289;-84
2023/06/12 09:44:22;;;;;;;;;;;;;;;24.07;29.84;99730.44;5319832;27;33897;-84
2023/06/12 09:46:50;;;;;;;;;;;;;;;24.03;29.46;99726.37;5283029;27;32658;-84
2023/06/12 09:49:20;;;;;;;;;;;;;;;24.05;29.40;99729.75;5284000;27;33355;-84
2023/06/12 09:51:50;;;;;;;;;;;;;;;24.09;30.39;99731.12;5283203;27;33343;-84
2023/06/12 09:54:18;;;;;;;;;;;;;;;24.09;30.55;99725.72;5320136;27;34276;-83
2023/06/12 09:56:46;;;;;;;;;;;;;;;24.41;29.98;99727.88;5283426;27;33629;-84
2023/06/12 09:59:17;;;;;;;;;;;;;;;24.34;29.66;99724.06;5284114;27;33770;-84
2023/06/12 10:01:49;;;;;;;;;;;;;;;24.34;31.72;99729.47;5283626;27;33992;-84
2023/06/12 10:04:22;;;;;;;;;;;;;;;24.88;30.25;99726.66;5301828;27;32879;-84
2023/06/12 10:06:50;;;;;;;;;;;;;;;24.69;30.67;99733.13;5283364;27;32549;-84
2023/06/12 10:09:17;;;;;;;;;;;;;;;25.06;29.00;99724.69;5320371;27;34545;-84
2023/06/12 10:11:45;;;;;;;;;;;;;;;25.13;29.47;99723.09;5283167;27;33759;-84
2023/06/12 10:14:13;;;;;;;;;;;;;;;25.23;29.41;99731.06;5283111;27;33079;-84
2023/06/12 10:16:42;;;;;;;;;;;;;;;25.13;29.66;99728.50;5301773;27;33914;-84
2023/06/12 10:19:09;;;;;;;;;;;;;;;25.46;28.95;99720.50;5301078;27;32851;-83
2023/06/12 10:21:37;;;;;;;;;;;;;;;25.36;30.72;99720.66;5301839;27;34940;-84
2023/06/12 10:24:04;;;;;;;;;;;;;;;25.47;28.83;99711.37;5302077;27;33571;-84
2023/06/12 10:26:32;;;;;;;;;;;;;;;25.33;28.34;99710.16;5319857;27;32996;-84
2023/06/12 10:28:59;;;;;;;;;;;;;;;25.26;31.13;99715.38;5282777;27;32912;-84
2023/06/12 10:31:29;;;;;;;;;;;;;;;25.37;29.68;99710.69;5301839;27;33260;-84
2023/06/12 10:34:04;;;;;;;;;;;;;;;25.77;28.76;99708.09;5320092;27;33936;-84
2023/06/12 10:36:35;;;;;;;;;;;;;;;25.77;27.87;99702.69;5302140;27;33041;-84
2023/06/12 10:39:06;;;;;;;;;;;;;;;25.35;29.32;99715.38;5283861;27;33874;-84
2023/06/12 10:41:34;;;;;;;;;;;;;;;25.29;27.48;99715.03;5302097;27;33444;-84
2023/06/12 10:44:02;;;;;;;;;;;;;;;24.85;28.07;99711.63;5301845;27;34273;-84
2023/06/12 10:46:43;;;;;;;;;;;;;;;24.82;28.88;99711.09;5301150;27;32053;-84
2023/06/12 10:49:13;;;;;;;;;;;;;;;24.94;28.03;99699.84;5284061;27;33913;-83
2023/06/12 10:51:46;;;;;;;;;;;;;;;25.21;29.60;99698.81;5301345;27;33517;-84
2023/06/12 10:54:15;;;;;;;;;;;;;;;25.03;29.55;99700.75;5320064;27;34363;-84
2023/06/12 10:56:58;;;;;;;;;;;;;;;24.68;30.15;99696.31;5283346;27;32218;-83
2023/06/12 10:59:30;;;;;;;;;;;;;;;25.20;29.39;99690.84;5283574;27;32934;-84
2023/06/12 11:01:58;;;;;;;;;;;;;;;25.34;29.81;99692.94;5301827;27;33784;-83
2023/06/12 11:04:27;;;;;;;;;;;;;;;25.40;27.28;99683.31;5284224;27;32886;-84
2023/06/12 11:06:55;;;;;;;;;;;;;;;25.55;29.64;99687.09;5301606;27;33338;-84
2023/06/12 11:09:22;;;;;;;;;;;;;;;25.72;28.65;99683.38;5301544;27;34320;-84
2023/06/12 11:11:51;;;;;;;;;;;;;;;26.09;28.17;99682.06;5321112;27;34096;-84
2023/06/12 11:14:25;;;;;;;;;;;;;;;25.86;30.43;99679.19;5301262;27;33644;-83
2023/06/12 11:16:56;;;;;;;;;;;;;;;26.10;28.46;99683.75;5283634;27;32957;-84
2023/06/12 11:19:28;;;;;;;;;;;;;;;25.78;27.03;99682.75;5283222;27;33180;-83
2023/06/12 11:21:56;;;;;;;;;;;;;;;25.91;27.18;99673.28;5283793;27;33482;-84
2023/06/12 11:24:23;;;;;;;;;;;;;;;25.67;27.16;99672.22;5319648;27;33414;-84
2023/06/12 11:26:51;;;;;;;;;;;;;;;25.66;28.71;99665.13;5283553;27;32974;-84
2023/06/12 11:29:20;;;;;;;;;;;;;;;25.69;27.05;99672.91;5301577;27;33924;-84
2023/06/12 11:31:51;;;;;;;;;;;;;;;25.99;27.99;99671.44;5301561;27;34961;-84
2023/06/12 11:34:18;;;;;;;;;;;;;;;26.02;28.91;99662.16;5319660;27;34138;-84
2023/06/12 11:36:46;;;;;;;;;;;;;;;25.99;28.32;99667.88;5301233;27;32487;-84
2023/06/12 11:39:17;;;;;;;;;;;;;;;25.67;27.87;99674.06;5301282;27;34007;-84
2023/06/12 11:41:49;;;;;;;;;;;;;;;25.97;28.07;99669.88;5301330;27;34277;-84
2023/06/12 11:44:16;;;;;;;;;;;;;;;26.02;27.65;99668.41;5265217;27;32908;-84
2023/06/12 11:46:44;;;;;;;;;;;;;;;26.09;27.15;99668.56;5283098;27;32502;-84
2023/06/12 11:49:13;;;;;;;;;;;;;;;25.62;27.92;99674.56;5319924;27;34920;-84
2023/06/12 11:51:41;;;;;;;;;;;;;;;26.10;28.73;99667.53;5301859;27;33054;-84
2023/06/12 11:54:09;;;;;;;;;;;;;;;26.28;29.13;99673.59;5301356;27;32850;-85
2023/06/12 11:56:39;;;;;;;;;;;;;;;25.56;27.72;99667.13;5283800;27;32418;-84
2023/06/12 11:59:10;;;;;;;;;;;;;;;25.89;24.96;99672.63;5301553;27;32988;-84
2023/06/12 12:01:38;;;;;;;;;;;;;;;25.92;24.28;99670.44;5319427;27;34291;-84
2023/06/12 12:04:07;;;;;;;;;;;;;;;25.74;22.24;99658.87;5283281;27;32720;-84
2023/06/12 12:06:47;;;;;;;;;;;;;;;25.70;22.34;99669.19;5319615;27;34056;-84
2023/06/12 12:09:15;;;;;;;;;;;;;;;25.39;21.98;99657.28;5281982;27;33138;-84
2023/06/12 12:11:43;;;;;;;;;;;;;;;25.36;22.48;99657.66;5283148;27;32528;-84
2023/06/12 12:14:10;;;;;;;;;;;;;;;25.36;24.19;99669.31;5279207;27;33719;-84
2023/06/12 12:16:47;;;;;;;;;;;;;;;25.36;23.70;99655.78;5300789;27;31648;-83
2023/06/12 12:19:25;;;;;;;;;;;;;;;25.15;23.20;99664.31;5300056;27;34437;-84
2023/06/12 12:21:54;;;;;;;;;;;;;;;25.37;23.19;99667.44;5261073;27;32777;-83
2023/06/12 12:24:23;;;;;;;;;;;;;;;25.71;23.35;99664.63;5277595;27;33479;-83
2023/06/12 12:26:52;;;;;;;;;;;;;;;25.61;23.71;99653.13;5298599;27;32109;-83
2023/06/12 12:29:21;;;;;;;;;;;;;;;25.75;23.61;99664.16;5280294;27;33700;-83
2023/06/12 12:31:50;;;;;;;;;;;;;;;26.03;24.09;99653.84;5276447;27;33281;-84
2023/06/12 12:34:19;;;;;;;;;;;;;;;25.96;22.53;99654.69;5278841;27;34517;-84
2023/06/12 12:36:48;;;;;;;;;;;;;;;25.95;24.46;99650.28;5252855;27;32308;-84
2023/06/12 12:39:16;;;;;;;;;;;;;;;26.18;22.25;99640.47;5278623;27;35221;-84
2023/06/12 12:41:44;;;;;;;;;;;;;;;26.14;24.11;99638.28;5299499;27;33822;-84
2023/06/12 12:44:15;;;;;;;;;;;;;;;26.52;23.08;99642.13;5282180;27;33414;-84
2023/06/12 12:46:44;;;;;;;;;;;;;;;26.44;24.28;99644.84;5278813;27;33183;-84
2023/06/12 12:49:13;;;;;;;;;;;;;;;26.51;22.73;99641.28;5263995;27;32959;-85
2023/06/12 12:51:42;;;;;;;;;;;;;;;26.46;23.42;99645.53;5264597;27;33497;-85
2023/06/12 12:54:10;;;;;;;;;;;;;;;26.60;23.02;99642.09;5265235;27;32968;-84
2023/06/12 12:56:39;;;;;;;;;;;;;;;26.67;24.03;99639.53;5265499;27;33024;-84